Time;durP1;ratioP1;P1;durP2;ratioP2;P2;SDS_P1;SDS_P2;PMS_P1;PMS_P2;Temp;Humidity;BMP_temperature;BMP_pressure;BME280_temperature;BME280_humidity;BME280_pressure;Samples;Min_cycle;Max_cycle;Signal;HPM_P1;HPM_P2
2023/05/10 00:02:09;;;;;;;6.47;4.72;;;;;;;12.63;100.00;100750.13;5028728;28;20044;-78
2023/05/10 00:04:34;;;;;;;6.65;4.53;;;;;;;12.62;100.00;100748.41;5029072;28;20106;-78
2023/05/10 00:06:59;;;;;;;7.18;4.85;;;;;;;12.59;100.00;100745.00;5030328;28;20112;-78
2023/05/10 00:09:25;;;;;;;7.00;4.93;;;;;;;12.58;100.00;100743.31;5029934;28;20056;-78
2023/05/10 00:11:50;;;;;;;6.93;4.88;;;;;;;12.57;100.00;100741.59;5029581;28;20102;-79
2023/05/10 00:14:16;;;;;;;6.53;4.90;;;;;;;12.57;100.00;100736.38;5028851;28;20047;-79
2023/05/10 00:16:41;;;;;;;7.45;5.45;;;;;;;12.57;100.00;100738.13;5030529;28;20025;-79
2023/05/10 00:19:06;;;;;;;8.02;5.65;;;;;;;12.56;100.00;100739.91;5031506;28;20447;-79
2023/05/10 00:21:33;;;;;;;9.73;5.57;;;;;;;12.55;100.00;100742.56;5030758;28;20487;-79
2023/05/10 00:23:58;;;;;;;11.63;6.32;;;;;;;12.54;100.00;100741.69;5030594;28;20022;-79
2023/05/10 00:26:24;;;;;;;9.75;6.43;;;;;;;12.52;100.00;100743.50;5030658;28;20029;-78
2023/05/10 00:28:49;;;;;;;9.88;6.72;;;;;;;12.51;100.00;100739.19;5030327;28;20469;-79
2023/05/10 00:31:14;;;;;;;12.60;7.22;;;;;;;12.51;100.00;100743.59;5030924;28;20025;-79
2023/05/10 00:33:40;;;;;;;11.13;7.38;;;;;;;12.48;100.00;100744.53;5031147;28;20029;-78
2023/05/10 00:36:07;;;;;;;12.38;7.97;;;;;;;12.47;100.00;100740.19;5031183;28;20026;-78
2023/05/10 00:38:33;;;;;;;14.20;8.68;;;;;;;12.48;100.00;100739.31;5029390;28;20041;-79
2023/05/10 00:40:58;;;;;;;12.65;8.15;;;;;;;12.46;100.00;100738.53;5030749;28;20096;-79
2023/05/10 00:43:23;;;;;;;13.57;8.07;;;;;;;12.46;100.00;100743.75;5030760;28;20025;-78
2023/05/10 00:45:49;;;;;;;13.93;9.32;;;;;;;12.46;100.00;100738.53;5030595;28;20061;-78
2023/05/10 00:48:14;;;;;;;14.82;9.13;;;;;;;12.45;100.00;100736.81;5029422;28;20049;-78
2023/05/10 00:50:40;;;;;;;13.73;9.20;;;;;;;12.43;100.00;100739.47;5029991;28;20471;-78
2023/05/10 00:53:06;;;;;;;14.52;9.00;;;;;;;12.43;100.00;100734.25;5026327;28;20036;-79
2023/05/10 00:55:31;;;;;;;14.30;9.00;;;;;;;12.42;100.00;100742.16;5027029;28;20112;-79
2023/05/10 00:57:56;;;;;;;15.90;9.25;;;;;;;12.39;100.00;100743.09;5029791;28;20124;-78
2023/05/10 01:00:22;;;;;;;15.10;9.57;;;;;;;12.38;100.00;100743.16;5029225;28;20408;-79
2023/05/10 01:02:47;;;;;;;14.73;9.52;;;;;;;12.37;100.00;100741.44;5027494;28;20029;-79
2023/05/10 01:05:13;;;;;;;17.02;10.23;;;;;;;12.36;100.00;100739.75;5028262;28;20037;-79
2023/05/10 01:07:39;;;;;;;16.48;10.48;;;;;;;12.35;100.00;100736.28;5027414;28;20033;-78
2023/05/10 01:10:06;;;;;;;16.05;10.13;;;;;;;12.34;100.00;100741.53;5029927;28;20528;-79
2023/05/10 01:12:34;;;;;;;17.27;10.32;;;;;;;12.32;100.00;100743.34;5028531;28;20083;-78
2023/05/10 01:15:00;;;;;;;16.77;10.48;;;;;;;12.32;100.00;100740.75;5028918;28;20031;-78
2023/05/10 01:17:26;;;;;;;17.17;10.95;;;;;;;12.29;100.00;100734.75;5027001;28;20037;-78
2023/05/10 01:19:51;;;;;;;15.80;10.13;;;;;;;12.27;100.00;100741.78;5028938;28;20034;-78
2023/05/10 01:22:51;;;;;;;16.08;9.98;;;;;;;12.29;100.00;100752.16;5028682;28;20060;-78
2023/05/10 01:25:22;;;;;;;16.20;9.82;;;;;;;12.28;100.00;100740.00;5032330;28;20033;-79
2023/05/10 01:28:24;;;;;;;15.82;10.65;;;;;;;12.30;100.00;100748.63;5033632;28;20384;-78
2023/05/10 01:31:06;;;;;;;17.02;9.57;;;;;;;12.28;100.00;100738.25;5032161;28;20033;-78
2023/05/10 01:33:57;;;;;;;15.43;10.02;;;;;;;12.29;100.00;100734.75;5033166;28;20049;-78
2023/05/10 01:36:34;;;;;;;16.63;10.23;;;;;;;12.30;100.00;100744.25;5031702;28;20096;-77
2023/05/10 01:39:14;;;;;;;18.02;11.05;;;;;;;12.29;100.00;100737.38;5032264;28;20137;-78
2023/05/10 01:42:16;;;;;;;16.27;10.95;;;;;;;12.30;100.00;100739.03;5031920;28;20025;-78
2023/05/10 01:44:59;;;;;;;;;;;;;;;12.32;100.00;100739.00;5028983;28;20056;-78
2023/05/10 01:47:40;;;;;;;15.30;9.60;;;;;;;12.27;100.00;100744.38;5032314;28;20521;-78
2023/05/10 01:50:14;;;;;;;17.35;10.27;;;;;;;12.24;100.00;100739.28;5032262;28;20045;-79
2023/05/10 01:52:47;;;;;;;18.70;11.38;;;;;;;12.21;100.00;100743.75;5031499;28;20029;-78
2023/05/10 01:55:16;;;;;;;18.98;11.05;;;;;;;12.18;100.00;100744.69;5030836;28;20044;-78
2023/05/10 01:57:44;;;;;;;19.73;11.75;;;;;;;12.20;100.00;100742.03;5031968;28;20037;-79
2023/05/10 02:00:11;;;;;;;20.70;12.30;;;;;;;12.22;100.00;100743.69;5026907;28;20022;-78
2023/05/10 02:02:42;;;;;;;25.17;13.68;;;;;;;12.23;100.00;100744.53;5033417;28;20046;-78
2023/05/10 02:05:08;;;;;;;23.58;13.07;;;;;;;12.25;100.00;100740.09;5032172;28;20048;-79
2023/05/10 02:07:35;;;;;;;28.40;14.10;;;;;;;12.26;100.00;100753.13;5033147;28;20032;-79
2023/05/10 02:10:04;;;;;;;26.48;14.65;;;;;;;12.27;100.00;100760.03;5030064;28;20033;-79
2023/05/10 02:12:34;;;;;;;32.05;15.70;;;;;;;12.28;100.00;100756.53;5029733;28;20029;-79
2023/05/10 02:15:01;;;;;;;30.67;16.13;;;;;;;12.29;100.00;100753.00;5031785;28;20033;-78
2023/05/10 02:17:28;;;;;;;33.28;17.23;;;;;;;12.29;100.00;100754.75;5033453;28;20348;-79
2023/05/10 02:19:56;;;;;;;35.38;18.55;;;;;;;12.29;100.00;100760.84;5032336;28;20096;-78
2023/05/10 02:22:22;;;;;;;32.78;17.98;;;;;;;12.32;100.00;100756.41;5034322;28;20476;-79
2023/05/10 02:24:48;;;;;;;33.50;17.95;;;;;;;12.32;100.00;100759.88;5032096;28;20048;-79
2023/05/10 02:27:15;;;;;;;37.85;19.17;;;;;;;12.33;100.00;100764.19;5034092;28;20028;-78
2023/05/10 02:29:41;;;;;;;37.28;19.02;;;;;;;12.34;100.00;100765.91;5033274;28;20030;-78
2023/05/10 02:32:09;;;;;;;37.78;19.40;;;;;;;12.36;100.00;100765.81;5031297;28;20025;-78
2023/05/10 02:34:36;;;;;;;37.75;19.45;;;;;;;12.38;100.00;100764.03;5033061;28;20044;-78
2023/05/10 02:37:03;;;;;;;37.75;19.63;;;;;;;12.38;100.00;100761.41;5033056;28;20072;-78
2023/05/10 02:39:30;;;;;;;38.10;19.98;;;;;;;12.40;100.00;100772.66;5034065;28;20040;-78
2023/05/10 02:41:57;;;;;;;36.83;19.20;;;;;;;12.41;100.00;100766.53;5032918;28;20029;-78
2023/05/10 02:44:23;;;;;;;38.38;20.10;;;;;;;12.43;100.00;100764.72;5030513;28;20021;-78
2023/05/10 02:46:48;;;;;;;38.72;20.13;;;;;;;12.42;100.00;100763.84;5032537;28;20033;-78
2023/05/10 02:49:15;;;;;;;37.38;19.42;;;;;;;12.43;100.00;100765.56;5031890;28;20060;-78
2023/05/10 02:51:50;;;;;;;41.45;20.52;;;;;;;12.45;100.00;100766.38;5031011;28;20021;-78
2023/05/10 02:54:19;;;;;;;37.92;19.58;;;;;;;12.44;100.00;100764.66;5027893;28;20108;-78
2023/05/10 02:56:53;;;;;;;34.67;19.05;;;;;;;12.44;100.00;100761.22;5031520;28;20040;-79
2023/05/10 02:59:19;;;;;;;38.08;20.63;;;;;;;12.44;100.00;100763.81;5032001;28;20080;-79
2023/05/10 03:01:44;;;;;;;38.65;21.20;;;;;;;12.43;100.00;100762.13;5029574;28;20025;-78
2023/05/10 03:04:09;;;;;;;36.97;21.42;;;;;;;12.43;100.00;100759.50;5032088;28;20100;-79
2023/05/10 03:06:34;;;;;;;38.05;21.45;;;;;;;12.44;100.00;100756.00;5030220;28;20044;-79
2023/05/10 03:09:02;;;;;;;35.80;20.40;;;;;;;12.44;100.00;100766.44;5030933;28;20487;-78
2023/05/10 03:11:47;;;;;;;37.38;20.95;;;;;;;12.45;100.00;100757.69;5030663;28;20028;-79
2023/05/10 03:14:45;;;;;;;36.47;20.38;;;;;;;12.45;100.00;100760.31;5030436;28;20037;-78
2023/05/10 03:17:19;;;;;;;36.28;19.90;;;;;;;12.44;100.00;100762.06;5030307;28;20087;-78
2023/05/10 03:19:56;;;;;;;36.22;20.15;;;;;;;12.45;100.00;100766.38;5029886;28;20548;-80
2023/05/10 03:22:26;;;;;;;35.97;19.90;;;;;;;12.45;100.00;100773.34;5028234;28;20503;-79
2023/05/10 03:24:55;;;;;;;35.28;21.38;;;;;;;12.45;100.00;100765.53;5030874;28;20087;-78
2023/05/10 03:27:22;;;;;;;37.67;21.40;;;;;;;12.46;100.00;100775.06;5030036;28;20499;-78
2023/05/10 03:29:48;;;;;;;38.75;21.65;;;;;;;12.47;100.00;100775.91;5031590;28;20040;-79
2023/05/10 03:32:13;;;;;;;39.22;21.58;;;;;;;12.47;100.00;100775.91;5029531;28;20116;-78
2023/05/10 03:34:45;;;;;;;38.60;22.20;;;;;;;12.47;100.00;100771.50;5030428;28;20026;-78
2023/05/10 03:37:10;;;;;;;;;;;;;;;12.50;100.00;100775.78;5031913;28;20048;-78
2023/05/10 03:39:36;;;;;;;36.92;21.17;;;;;;;12.49;100.00;100779.31;5031381;28;19913;-78
2023/05/10 03:42:01;;;;;;;37.67;20.60;;;;;;;12.49;100.00;100781.91;5030319;28;20018;-78
2023/05/10 03:44:26;;;;;;;39.90;22.67;;;;;;;12.48;100.00;100782.81;5030867;28;20036;-78
2023/05/10 03:46:52;;;;;;;39.75;22.80;;;;;;;12.50;100.00;100787.06;5030141;28;20500;-78
2023/05/10 03:49:17;;;;;;;41.45;23.33;;;;;;;12.48;100.00;100788.88;5028888;28;20032;-78
2023/05/10 03:51:42;;;;;;;41.30;23.48;;;;;;;12.49;100.00;100789.75;5029222;28;20419;-78
2023/05/10 03:54:08;;;;;;;39.17;22.80;;;;;;;12.50;100.00;100783.63;5029516;28;20025;-77
2023/05/10 03:56:33;;;;;;;38.97;22.83;;;;;;;12.49;100.00;100787.97;5031000;28;20017;-77
2023/05/10 03:58:58;;;;;;;41.45;23.38;;;;;;;12.50;100.00;100792.28;5030433;28;20117;-78
2023/05/10 04:01:23;;;;;;;41.15;23.27;;;;;;;12.48;100.00;100794.09;5028753;28;20025;-77
2023/05/10 04:03:49;;;;;;;41.97;24.02;;;;;;;12.50;100.00;100789.69;5031038;28;20029;-78
2023/05/10 04:06:14;;;;;;;42.33;23.08;;;;;;;12.49;100.00;100789.75;5030769;28;20017;-78
2023/05/10 04:08:39;;;;;;;38.78;23.05;;;;;;;12.50;100.00;100796.66;5028495;28;20033;-78
2023/05/10 04:11:09;;;;;;;38.80;22.80;;;;;;;12.51;100.00;100798.38;5030246;28;20029;-78
2023/05/10 04:13:34;;;;;;;39.58;22.27;;;;;;;12.50;100.00;100797.50;5030892;28;20029;-78
2023/05/10 04:16:00;;;;;;;43.42;23.65;;;;;;;12.52;100.00;100797.47;5030161;28;20032;-78
2023/05/10 04:18:25;;;;;;;41.85;23.33;;;;;;;12.52;100.00;100798.31;5030779;28;20040;-78
2023/05/10 04:20:50;;;;;;;37.78;22.27;;;;;;;12.52;100.00;100805.31;5030842;28;20029;-78
2023/05/10 04:23:16;;;;;;;39.78;21.85;;;;;;;12.51;100.00;100803.59;5028351;28;20071;-78
2023/05/10 04:25:42;;;;;;;37.85;22.23;;;;;;;12.49;100.00;100801.03;5030236;28;20020;-78
2023/05/10 04:28:07;;;;;;;38.60;23.35;;;;;;;12.50;100.00;100800.13;5030848;28;20025;-78
2023/05/10 04:30:32;;;;;;;39.45;22.92;;;;;;;12.49;100.00;100801.03;5028881;28;20071;-78
2023/05/10 04:32:58;;;;;;;38.85;22.27;;;;;;;12.49;100.00;100795.81;5030973;28;20023;-78
2023/05/10 04:35:23;;;;;;;38.92;22.13;;;;;;;12.48;100.00;100801.94;5030633;28;20025;-78
2023/05/10 04:37:48;;;;;;;38.33;21.80;;;;;;;12.49;100.00;100806.25;5030972;28;20095;-78
2023/05/10 04:40:14;;;;;;;35.83;21.42;;;;;;;12.48;100.00;100809.75;5029038;28;20083;-78
2023/05/10 04:42:43;;;;;;;40.90;20.58;;;;;;;12.45;100.00;100809.88;5028113;28;20242;-78
2023/05/10 04:45:09;;;;;;;33.60;18.55;;;;;;;12.44;100.00;100809.00;5028358;28;20021;-78
2023/05/10 04:47:36;;;;;;;32.45;18.33;;;;;;;12.43;100.00;100806.47;5028750;28;20091;-79
2023/05/10 04:50:02;;;;;;;36.13;18.42;;;;;;;12.42;100.00;100810.81;5028888;28;20052;-78
2023/05/10 04:52:27;;;;;;;31.83;17.00;;;;;;;12.43;100.00;100819.50;5028951;28;20017;-78
2023/05/10 04:54:53;;;;;;;33.20;18.02;;;;;;;12.41;100.00;100821.31;5030184;28;20026;-78
2023/05/10 04:57:18;;;;;;;29.45;16.75;;;;;;;12.39;100.00;100821.34;5029132;28;20038;-79
2023/05/10 04:59:43;;;;;;;29.02;17.48;;;;;;;12.37;100.00;100828.41;5026137;28;20021;-78
2023/05/10 05:02:08;;;;;;;30.70;16.85;;;;;;;12.39;100.00;100825.72;5027166;28;20488;-78
2023/05/10 05:04:34;;;;;;;32.25;16.27;;;;;;;12.35;100.00;100830.22;5029613;28;20036;-78
2023/05/10 05:06:59;;;;;;;31.00;16.73;;;;;;;12.29;100.00;100836.50;5028639;28;20357;-79
2023/05/10 05:09:24;;;;;;;29.23;15.68;;;;;;;12.27;100.00;100832.22;5029012;28;20036;-78
2023/05/10 05:11:49;;;;;;;26.77;15.18;;;;;;;12.23;100.00;100836.69;5028887;28;20068;-78
2023/05/10 05:14:15;;;;;;;25.60;14.68;;;;;;;12.21;100.00;100838.47;5030125;28;20030;-78
2023/05/10 05:16:40;;;;;;;24.38;14.80;;;;;;;12.21;100.00;100838.47;5027354;28;20698;-79
2023/05/10 05:19:05;;;;;;;29.13;14.45;;;;;;;12.20;100.00;100842.00;5029011;28;20025;-78
2023/05/10 05:21:32;;;;;;;25.35;14.27;;;;;;;12.20;100.00;100841.16;5029095;28;20435;-78
2023/05/10 05:23:57;;;;;;;23.83;13.95;;;;;;;12.19;99.73;100840.28;5029046;28;20472;-78
2023/05/10 05:26:22;;;;;;;25.15;14.45;;;;;;;12.21;100.00;100838.47;5028400;28;20030;-78
2023/05/10 05:28:48;;;;;;;26.30;14.05;;;;;;;12.24;99.75;100848.81;5028303;28;20037;-78
2023/05/10 05:31:14;;;;;;;24.50;14.18;;;;;;;12.27;99.42;100847.84;5026854;28;20361;-78
2023/05/10 05:33:39;;;;;;;24.17;14.05;;;;;;;12.30;99.64;100846.00;5029949;28;20044;-78
2023/05/10 05:36:05;;;;;;;25.95;14.13;;;;;;;12.36;99.37;100846.69;5027666;28;20044;-78
2023/05/10 05:38:31;;;;;;;24.02;14.82;;;;;;;12.39;99.26;100844.84;5028301;28;20029;-78
2023/05/10 05:40:57;;;;;;;23.02;14.57;;;;;;;12.45;98.95;100841.19;5029547;28;20036;-78
2023/05/10 05:43:23;;;;;;;21.95;13.90;;;;;;;12.52;99.41;100847.06;5030021;28;20021;-78
2023/05/10 05:45:48;;;;;;;23.73;13.73;;;;;;;12.58;98.95;100850.31;5028977;28;20028;-78
2023/05/10 05:48:14;;;;;;;24.33;14.30;;;;;;;12.62;98.53;100852.81;5028594;28;20427;-78
2023/05/10 05:50:39;;;;;;;25.48;14.43;;;;;;;12.62;98.42;100852.81;5029609;28;20471;-78
2023/05/10 05:53:04;;;;;;;25.10;14.70;;;;;;;12.62;97.81;100851.03;5029456;28;20025;-78
2023/05/10 05:55:31;;;;;;;25.63;14.30;;;;;;;12.60;96.98;100863.28;5028759;28;20033;-78
2023/05/10 05:57:57;;;;;;;21.52;13.88;;;;;;;12.56;96.90;100849.50;5027686;28;20057;-78
2023/05/10 06:00:22;;;;;;;25.20;14.13;;;;;;;12.57;97.10;100852.94;5025251;28;21896;-78
2023/05/10 06:02:47;;;;;;;22.65;14.27;;;;;;;12.60;97.28;100858.94;5029405;28;20025;-78
2023/05/10 06:05:13;;;;;;;23.58;13.70;;;;;;;12.64;96.76;100858.84;5028491;28;20029;-79
2023/05/10 06:07:41;;;;;;;22.45;14.55;;;;;;;12.67;97.03;100866.53;5028195;28;20112;-78
2023/05/10 06:10:07;;;;;;;23.80;14.10;;;;;;;12.68;96.41;100865.63;5027154;28;20029;-78
2023/05/10 06:12:33;;;;;;;26.73;14.60;;;;;;;12.71;96.19;100869.03;5031676;28;20092;-80
2023/05/10 06:14:58;;;;;;;24.55;14.10;;;;;;;12.74;96.44;100874.09;5025725;28;20044;-79
2023/05/10 06:17:24;;;;;;;24.65;13.98;;;;;;;12.74;95.77;100879.31;5025898;28;20485;-79
2023/05/10 06:19:49;;;;;;;24.98;14.18;;;;;;;12.78;95.96;100881.84;5027679;28;20037;-79
2023/05/10 06:22:15;;;;;;;25.50;14.70;;;;;;;12.80;95.98;100880.91;5027647;28;20029;-78
2023/05/10 06:24:40;;;;;;;24.20;14.15;;;;;;;12.84;96.47;100879.88;5026379;28;21481;-77
2023/05/10 06:27:06;;;;;;;23.02;13.80;;;;;;;12.87;96.06;100881.53;5027966;28;20033;-76
2023/05/10 06:29:31;;;;;;;19.98;13.02;;;;;;;12.87;95.57;100882.38;5027109;28;20091;-78
2023/05/10 06:31:56;;;;;;;24.10;13.35;;;;;;;12.88;95.54;100878.03;5026034;28;20443;-78
2023/05/10 06:34:21;;;;;;;20.15;12.55;;;;;;;12.87;95.56;100878.94;5026251;28;20048;-78
2023/05/10 06:36:47;;;;;;;20.90;12.98;;;;;;;12.86;95.49;100888.50;5028697;28;20141;-79
2023/05/10 06:39:12;;;;;;;22.83;14.23;;;;;;;12.87;95.78;100884.16;5026954;28;20025;-77
2023/05/10 06:41:37;;;;;;;20.48;12.90;;;;;;;12.88;95.84;100891.06;5025849;28;20360;-78
2023/05/10 06:44:03;;;;;;;24.23;13.15;;;;;;;12.88;95.92;100891.91;5026183;28;20037;-78
2023/05/10 06:46:29;;;;;;;22.92;12.90;;;;;;;12.87;95.58;100890.22;5026150;28;20674;-78
2023/05/10 06:48:54;;;;;;;21.23;13.27;;;;;;;12.86;95.35;100898.09;5025898;28;20052;-78
2023/05/10 06:51:21;;;;;;;20.63;12.57;;;;;;;12.83;95.26;100899.03;5022387;28;20045;-78
2023/05/10 06:53:46;;;;;;;22.15;13.20;;;;;;;12.81;95.59;100895.63;5024948;28;20037;-78
2023/05/10 06:56:11;;;;;;;23.98;13.73;;;;;;;12.83;95.32;100898.22;5022228;28;20362;-78
2023/05/10 06:58:36;;;;;;;24.98;13.98;;;;;;;12.85;95.28;100902.47;5022514;28;20497;-79
2023/05/10 07:01:03;;;;;;;21.33;13.25;;;;;;;12.86;95.13;100904.16;5023039;28;20116;-85
2023/05/10 07:03:28;;;;;;;20.70;13.25;;;;;;;12.87;95.65;100910.25;5023729;28;20112;-78
2023/05/10 07:05:54;;;;;;;25.77;14.18;;;;;;;12.89;95.82;100903.22;5024778;28;20116;-79
2023/05/10 07:08:20;;;;;;;25.10;14.30;;;;;;;12.90;95.67;100908.38;5022164;28;20685;-78
2023/05/10 07:10:45;;;;;;;23.83;13.77;;;;;;;12.90;95.57;100915.34;5024093;28;20037;-79
2023/05/10 07:13:10;;;;;;;24.50;13.90;;;;;;;12.92;96.09;100917.94;5024443;28;20026;-79
2023/05/10 07:15:36;;;;;;;21.42;13.38;;;;;;;12.93;96.15;100917.03;5024412;28;20125;-78
2023/05/10 07:18:01;;;;;;;23.02;13.57;;;;;;;12.95;96.00;100923.06;5022740;28;20029;-78
2023/05/10 07:20:26;;;;;;;24.85;14.00;;;;;;;12.96;95.59;100924.75;5025040;28;20575;-79
2023/05/10 07:22:52;;;;;;;25.52;14.45;;;;;;;12.96;95.86;100930.81;5024672;28;20039;-79
2023/05/10 07:25:17;;;;;;;22.13;14.18;;;;;;;12.96;95.80;100927.38;5024370;28;20109;-79
2023/05/10 07:27:42;;;;;;;22.02;13.45;;;;;;;12.96;95.61;100929.97;5024196;28;20021;-79
2023/05/10 07:30:08;;;;;;;22.77;13.88;;;;;;;12.97;96.00;100932.53;5023150;28;20056;-79
2023/05/10 07:32:33;;;;;;;22.50;14.20;;;;;;;12.96;95.77;100930.81;5022653;28;20136;-79
2023/05/10 07:34:58;;;;;;;23.50;14.75;;;;;;;12.97;95.86;100931.69;5025164;28;21048;-79
2023/05/10 07:37:24;;;;;;;22.42;14.07;;;;;;;12.98;96.15;100922.94;5024454;28;20032;-79
2023/05/10 07:39:49;;;;;;;24.17;14.77;;;;;;;12.96;96.06;100929.97;5023789;28;20040;-79
2023/05/10 07:42:15;;;;;;;23.52;15.63;;;;;;;12.92;95.66;100934.44;5024384;28;20543;-79
2023/05/10 07:44:40;;;;;;;25.42;15.85;;;;;;;12.89;95.46;100939.78;5022618;28;20037;-79
2023/05/10 07:47:05;;;;;;;27.55;15.93;;;;;;;12.85;95.99;100933.78;5023630;28;20041;-79
2023/05/10 07:49:30;;;;;;;27.27;16.27;;;;;;;12.85;95.86;100946.84;5024404;28;20057;-79
2023/05/10 07:51:56;;;;;;;26.70;15.77;;;;;;;12.83;95.63;100950.41;5023581;28;20033;-79
2023/05/10 07:54:21;;;;;;;24.80;15.60;;;;;;;12.82;95.47;100954.78;5024351;28;20743;-79
2023/05/10 07:56:47;;;;;;;25.65;15.60;;;;;;;12.79;95.33;100949.69;5024319;28;20033;-79
2023/05/10 07:59:16;;;;;;;26.85;15.88;;;;;;;12.79;95.80;100949.69;5022379;28;20021;-79
2023/05/10 08:01:42;;;;;;;25.23;15.07;;;;;;;12.76;95.58;100957.59;5023185;28;20038;-78
2023/05/10 08:04:08;;;;;;;25.63;15.38;;;;;;;12.74;96.23;100956.81;5021363;28;20037;-79
2023/05/10 08:06:33;;;;;;;25.63;15.02;;;;;;;12.78;96.51;100973.22;5023432;28;20025;-79
2023/05/10 08:08:59;;;;;;;24.75;15.15;;;;;;;12.79;96.20;100965.34;5023090;28;20037;-78
2023/05/10 08:11:24;;;;;;;25.75;15.10;;;;;;;12.82;96.42;100974.81;5022758;28;20064;-78
2023/05/10 08:13:50;;;;;;;23.95;14.93;;;;;;;12.84;95.76;100968.63;5022512;28;20033;-78
2023/05/10 08:16:16;;;;;;;26.45;15.25;;;;;;;12.87;95.62;100978.97;5023251;28;20116;-79
2023/05/10 08:18:43;;;;;;;24.52;15.20;;;;;;;12.88;96.01;100975.47;5024105;28;21516;-79
2023/05/10 08:21:11;;;;;;;24.00;15.18;;;;;;;12.90;95.40;100972.78;5025150;28;20033;-79
2023/05/10 08:23:36;;;;;;;24.65;14.52;;;;;;;12.92;95.71;100970.16;5023102;28;20048;-79
2023/05/10 08:26:01;;;;;;;22.08;13.93;;;;;;;12.97;95.60;100976.09;5024453;28;20416;-79
2023/05/10 08:28:27;;;;;;;23.23;13.95;;;;;;;13.00;95.42;100978.56;5024963;28;20037;-78
2023/05/10 08:30:52;;;;;;;23.30;14.23;;;;;;;13.06;96.00;100988.81;5024352;28;20103;-80
2023/05/10 08:33:18;;;;;;;22.65;13.48;;;;;;;13.12;95.86;100985.13;5023521;28;20115;-78
2023/05/10 08:35:43;;;;;;;19.55;13.38;;;;;;;13.17;95.46;100997.13;5026212;28;20033;-78
2023/05/10 08:38:09;;;;;;;19.58;12.10;;;;;;;13.20;95.01;100991.81;5022759;28;20040;-78
2023/05/10 08:40:36;;;;;;;20.85;12.38;;;;;;;13.26;94.80;100995.13;5025108;28;20138;-79
2023/05/10 08:43:06;;;;;;;19.63;11.60;;;;;;;13.31;93.96;100993.22;5024836;28;20380;-79
2023/05/10 08:45:35;;;;;;;19.33;11.65;;;;;;;13.33;93.03;101000.09;5022953;28;20119;-78
2023/05/10 08:48:05;;;;;;;17.42;11.18;;;;;;;13.38;93.44;100999.91;5024159;28;20067;-77
2023/05/10 08:50:32;;;;;;;16.75;11.32;;;;;;;13.43;92.21;100998.03;5021526;28;20060;-78
2023/05/10 08:53:01;;;;;;;17.35;11.23;;;;;;;13.47;91.60;101009.22;5021520;28;20045;-79
2023/05/10 08:55:27;;;;;;;15.52;11.07;;;;;;;13.55;91.81;101006.34;5021134;28;20171;-80
2023/05/10 08:57:53;;;;;;;16.35;10.70;;;;;;;13.63;92.01;101004.31;5019021;28;20034;-79
2023/05/10 09:00:19;;;;;;;18.70;11.05;;;;;;;13.72;91.09;101008.38;5021349;28;20040;-79
2023/05/10 09:02:48;;;;;;;16.23;10.38;;;;;;;13.75;89.67;101014.31;5022016;28;20025;-78
2023/05/10 09:05:15;;;;;;;16.80;11.25;;;;;;;13.80;89.82;101011.53;5021632;28;20554;-79
2023/05/10 09:07:41;;;;;;;15.57;10.75;;;;;;;13.83;88.82;101018.44;5020477;28;20063;-79
2023/05/10 09:10:08;;;;;;;16.02;9.75;;;;;;;13.84;89.49;101017.50;5018802;28;20056;-78
2023/05/10 09:12:33;;;;;;;15.07;10.23;;;;;;;13.84;89.00;101018.38;5019023;28;20109;-79
2023/05/10 09:15:00;;;;;;;13.98;10.43;;;;;;;13.80;88.49;101022.88;5020409;28;20148;-78
2023/05/10 09:17:26;;;;;;;12.32;9.82;;;;;;;13.78;89.09;101024.69;5022311;28;20037;-79
2023/05/10 09:20:03;;;;;;;15.60;9.85;;;;;;;13.78;88.79;101027.28;5017946;28;20494;-78
2023/05/10 09:22:30;;;;;;;12.10;8.77;;;;;;;13.78;87.62;101029.91;5017215;28;20029;-78
2023/05/10 09:25:04;;;;;;;12.50;8.70;;;;;;;13.78;87.81;101029.91;5018459;28;20034;-77
2023/05/10 09:27:30;;;;;;;10.95;8.20;;;;;;;13.76;87.67;101036.09;5018068;28;20048;-79
2023/05/10 09:29:55;;;;;;;14.88;9.60;;;;;;;13.74;87.90;101041.38;5019003;28;20048;-79
2023/05/10 09:32:20;;;;;;;14.02;9.43;;;;;;;13.75;88.91;101037.03;5018465;28;20408;-78
2023/05/10 09:34:49;;;;;;;15.15;9.02;;;;;;;13.75;87.99;101037.84;5019119;28;20086;-79
2023/05/10 09:37:16;;;;;;;13.57;8.98;;;;;;;13.76;87.77;101041.31;5018286;28;20061;-78
2023/05/10 09:39:41;;;;;;;14.30;9.07;;;;;;;13.76;87.76;101042.19;5020939;28;20037;-79
2023/05/10 09:42:10;;;;;;;12.15;8.68;;;;;;;13.77;88.77;101051.72;5018309;28;20033;-78
2023/05/10 09:44:36;;;;;;;12.95;8.35;;;;;;;13.77;88.52;101054.34;5018525;28;20108;-78
2023/05/10 09:47:02;;;;;;;13.40;8.00;;;;;;;13.74;88.48;101054.44;5025975;28;21586;-78
2023/05/10 09:49:28;;;;;;;10.25;7.07;;;;;;;13.73;88.15;101052.75;5024439;28;20043;-79
2023/05/10 09:52:05;;;;;;;10.52;6.90;;;;;;;13.74;88.67;101051.00;5025735;28;20030;-79
2023/05/10 09:54:31;;;;;;;8.93;6.75;;;;;;;13.76;88.90;101054.38;5023670;28;20037;-79
2023/05/10 09:56:56;;;;;;;9.43;6.75;;;;;;;13.75;88.02;101055.31;5021914;28;20025;-79
2023/05/10 09:59:25;;;;;;;9.20;6.13;;;;;;;13.74;87.80;101058.84;5022883;28;20029;-79
2023/05/10 10:01:52;;;;;;;9.25;5.90;;;;;;;13.73;87.97;101057.97;5021771;28;20032;-79
2023/05/10 10:04:17;;;;;;;9.38;6.10;;;;;;;13.74;88.67;101058.84;5024380;28;20191;-78
2023/05/10 10:06:43;;;;;;;9.68;5.72;;;;;;;13.76;88.67;101054.38;5021552;28;20774;-79
2023/05/10 10:09:09;;;;;;;8.27;6.18;;;;;;;13.80;88.56;101054.25;5024937;28;20143;-79
2023/05/10 10:11:36;;;;;;;8.15;5.93;;;;;;;13.83;87.36;101049.81;5023575;28;20037;-79
2023/05/10 10:14:01;;;;;;;9.98;5.55;;;;;;;13.85;87.09;101050.59;5025414;28;20026;-78
2023/05/10 10:16:28;;;;;;;7.72;5.72;;;;;;;13.91;87.83;101050.38;5026758;28;20488;-79
2023/05/10 10:18:54;;;;;;;7.90;6.03;;;;;;;13.98;87.25;101049.25;5027430;28;20025;-79
2023/05/10 10:21:20;;;;;;;7.25;5.63;;;;;;;14.10;87.15;101053.16;5026819;28;20064;-79
2023/05/10 10:23:46;;;;;;;8.80;5.68;;;;;;;14.25;86.85;101051.75;5027074;28;20075;-78
2023/05/10 10:26:12;;;;;;;8.30;5.60;;;;;;;14.38;85.73;101052.13;5026873;28;20029;-78
2023/05/10 10:28:49;;;;;;;9.45;5.72;;;;;;;14.55;85.90;101059.31;5027565;28;21596;-78
2023/05/10 10:31:45;;;;;;;8.73;5.93;;;;;;;14.74;87.25;101056.88;5026885;28;20504;-79
2023/05/10 10:34:18;;;;;;;8.18;5.75;;;;;;;14.82;85.50;101053.94;5026269;28;20033;-79
2023/05/10 10:36:47;;;;;;;7.63;6.10;;;;;;;14.91;84.41;101057.97;5026578;28;20090;-79
2023/05/10 10:39:13;;;;;;;7.75;6.18;;;;;;;14.98;83.45;101062.91;5027380;28;20029;-79
2023/05/10 10:41:50;;;;;;;8.57;5.95;;;;;;;15.02;83.07;101058.38;5027004;28;20022;-78
2023/05/10 10:44:21;;;;;;;7.88;5.97;;;;;;;15.05;83.40;101054.75;5028240;28;20107;-78
2023/05/10 10:47:11;;;;;;;9.20;5.80;;;;;;;15.07;84.72;101058.19;5027921;28;20041;-79
2023/05/10 10:49:39;;;;;;;8.57;5.68;;;;;;;15.00;83.06;101058.44;5058084;28;20056;-78
2023/05/10 10:52:28;;;;;;;8.27;5.65;;;;;;;14.98;84.21;101051.53;5025410;28;20085;-78
2023/05/10 10:54:59;;;;;;;6.97;4.80;;;;;;;14.85;82.60;101048.59;5022675;28;20029;-79
2023/05/10 10:57:26;;;;;;;7.00;4.90;;;;;;;14.71;83.00;101055.22;5021591;28;20026;-79
2023/05/10 10:59:51;;;;;;;7.38;5.00;;;;;;;14.60;84.11;101051.31;5024349;28;20025;-78
2023/05/10 11:02:42;;;;;;;5.95;4.57;;;;;;;14.51;85.30;101050.75;5025851;28;20026;-79
2023/05/10 11:05:32;;;;;;;7.97;5.13;;;;;;;14.44;85.95;101053.66;5021481;28;20495;-78
2023/05/10 11:07:59;;;;;;;7.00;5.28;;;;;;;14.35;85.41;101060.09;5024385;28;20029;-79
2023/05/10 11:10:25;;;;;;;8.52;5.40;;;;;;;14.32;86.17;101058.47;5024632;28;20033;-78
2023/05/10 11:13:04;;;;;;;7.40;5.47;;;;;;;14.26;86.82;101063.91;5022016;28;20030;-78